createdAt,value
2022-10-19T00:01:23.874Z,86.20
2022-10-19T00:03:53.637Z,78.57
2022-10-19T00:06:27.114Z,80.07
2022-10-19T00:09:03.402Z,88.03
2022-10-19T00:11:32.021Z,79.22
2022-10-19T00:14:00.981Z,81.15
2022-10-19T00:16:31.682Z,82.43
2022-10-19T00:19:01.264Z,80.85
2022-10-19T00:21:29.562Z,83.75
2022-10-19T00:23:57.415Z,81.53
2022-10-19T00:26:25.980Z,80.45
2022-10-19T00:28:56.774Z,75.85
2022-10-19T00:31:25.174Z,77.18
2022-10-19T00:33:53.131Z,73.78
2022-10-19T00:36:21.993Z,86.28
2022-10-19T00:38:50.196Z,80.53
2022-10-19T00:41:18.825Z,74.82
2022-10-19T00:44:01.890Z,72.95
2022-10-19T00:46:32.199Z,78.03
2022-10-19T00:49:11.064Z,77.65
2022-10-19T00:51:42.247Z,80.03
2022-10-19T00:54:10.911Z,76.85
2022-10-19T00:56:42.733Z,60.63
2022-10-19T00:59:15.056Z,65.80
2022-10-19T01:04:11.022Z,74.63
2022-10-19T01:06:39.733Z,66.88
2022-10-19T01:09:08.226Z,66.50
2022-10-19T01:11:56.561Z,69.60
2022-10-19T01:14:28.747Z,69.18
2022-10-19T01:17:21.007Z,81.53
2022-10-19T01:20:22.067Z,77.03
2022-10-19T01:23:23.189Z,72.65
2022-10-19T01:26:11.695Z,73.85
2022-10-19T01:29:06.786Z,77.25
2022-10-19T01:32:06.249Z,77.53
2022-10-19T01:34:48.174Z,86.85
2022-10-19T01:37:36.795Z,85.72
2022-10-19T01:40:09.767Z,78.20
2022-10-19T01:42:50.445Z,74.30
2022-10-19T01:45:24.290Z,68.00
2022-10-19T01:47:58.532Z,74.68
2022-10-19T01:50:41.201Z,71.28
2022-10-19T01:53:12.405Z,72.10
2022-10-19T01:55:43.386Z,79.30
2022-10-19T01:58:14.633Z,82.05
2022-10-19T02:00:45.419Z,80.40
2022-10-19T02:03:13.672Z,73.18
2022-10-19T02:05:42.619Z,72.32
2022-10-19T02:08:20.286Z,78.10
2022-10-19T02:10:48.346Z,77.75
2022-10-19T02:13:16.512Z,73.85
2022-10-19T02:15:49.365Z,84.75
2022-10-19T02:18:21.941Z,77.95
2022-10-19T02:20:49.582Z,76.20
2022-10-19T02:23:20.622Z,72.72
2022-10-19T02:25:48.252Z,79.18
2022-10-19T02:28:15.982Z,76.32
2022-10-19T02:30:43.490Z,79.95
2022-10-19T02:33:12.461Z,79.60
2022-10-19T02:35:40.499Z,84.22
2022-10-19T02:38:10.845Z,83.25
2022-10-19T02:40:42.593Z,79.72
2022-10-19T02:43:19.669Z,77.63
2022-10-19T02:45:56.393Z,79.10
2022-10-19T02:48:26.259Z,80.43
2022-10-19T02:50:53.646Z,77.57
2022-10-19T02:53:21.143Z,75.10
2022-10-19T02:55:49.975Z,70.60
2022-10-19T02:58:17.388Z,72.55
2022-10-19T03:00:44.784Z,70.38
2022-10-19T03:03:12.151Z,70.30
2022-10-19T03:05:39.614Z,66.22
2022-10-19T03:08:07.025Z,75.97
2022-10-19T03:10:34.449Z,82.20
2022-10-19T03:13:01.820Z,79.68
2022-10-19T03:15:29.916Z,69.60
2022-10-19T03:17:57.418Z,73.88
2022-10-19T03:20:24.844Z,78.15
2022-10-19T03:25:20.558Z,77.72
2022-10-19T03:27:47.975Z,68.88
2022-10-19T03:30:15.419Z,64.97
2022-10-19T03:32:42.831Z,69.88
2022-10-19T03:35:10.207Z,65.30
2022-10-19T03:37:37.735Z,71.85
2022-10-19T03:40:05.601Z,68.55
2022-10-19T03:42:32.965Z,72.38
2022-10-19T03:45:00.325Z,76.65
2022-10-19T03:47:27.994Z,73.40
2022-10-19T03:49:55.421Z,80.28
2022-10-19T03:52:23.294Z,70.78
2022-10-19T03:54:51.510Z,76.63
2022-10-19T03:57:19.203Z,70.85
2022-10-19T03:59:46.631Z,73.78
2022-10-19T04:02:14.081Z,74.13
2022-10-19T04:04:41.618Z,72.35
2022-10-19T04:07:09.069Z,80.45
2022-10-19T04:09:36.526Z,77.05
2022-10-19T04:12:04.185Z,80.05
2022-10-19T04:14:32.721Z,80.43
2022-10-19T04:17:06.804Z,85.82
2022-10-19T04:19:34.229Z,91.35
2022-10-19T04:22:01.684Z,88.90
2022-10-19T04:24:29.221Z,92.35
2022-10-19T04:26:56.935Z,89.80
2022-10-19T04:29:29.558Z,90.82
2022-10-19T04:31:58.589Z,85.10
2022-10-19T04:34:26.057Z,89.35
2022-10-19T04:36:53.950Z,80.68
2022-10-19T04:39:21.406Z,79.57
2022-10-19T04:41:48.775Z,97.90
2022-10-19T04:44:16.268Z,84.32
2022-10-19T04:46:43.736Z,89.65
2022-10-19T04:49:11.115Z,74.78
2022-10-19T04:51:38.511Z,70.93
2022-10-19T04:54:05.890Z,64.15
2022-10-19T04:56:33.491Z,68.35
2022-10-19T04:59:01.486Z,74.57
2022-10-19T05:01:30.758Z,71.32
2022-10-19T05:04:02.731Z,80.95
2022-10-19T05:06:31.532Z,69.70
2022-10-19T05:08:59.891Z,75.15
2022-10-19T05:11:27.711Z,76.50
2022-10-19T05:13:57.003Z,67.60
2022-10-19T05:16:24.774Z,79.30
2022-10-19T05:18:58.999Z,73.13
2022-10-19T05:21:30.032Z,78.00
2022-10-19T05:23:58.074Z,79.85
2022-10-19T05:26:27.168Z,85.80
2022-10-19T05:28:57.686Z,160.25
2022-10-19T05:31:27.224Z,91.20
2022-10-19T05:33:58.613Z,85.22
2022-10-19T05:36:34.537Z,83.60
2022-10-19T05:39:13.085Z,90.72
2022-10-19T05:41:42.957Z,95.85
2022-10-19T05:44:20.219Z,102.05
2022-10-19T05:46:48.889Z,94.20
2022-10-19T05:49:18.082Z,97.25
2022-10-19T05:51:45.900Z,91.70
2022-10-19T05:54:14.235Z,97.30
2022-10-19T05:56:42.513Z,87.32
2022-10-19T05:59:14.659Z,95.78
2022-10-19T06:01:42.078Z,77.43
2022-10-19T06:04:10.924Z,83.88
2022-10-19T06:06:38.378Z,89.32
2022-10-19T06:09:06.086Z,80.57
2022-10-19T06:11:36.428Z,93.35
2022-10-19T06:14:07.481Z,87.75
2022-10-19T06:16:35.454Z,71.47
2022-10-19T06:19:03.848Z,85.32
2022-10-19T06:21:32.574Z,77.00
2022-10-19T06:24:02.942Z,80.68
2022-10-19T06:26:33.767Z,73.03
2022-10-19T06:29:01.859Z,78.00
2022-10-19T06:31:31.978Z,70.38
2022-10-19T06:33:59.953Z,63.88
2022-10-19T06:36:31.122Z,67.55
2022-10-19T06:39:00.019Z,63.30
2022-10-19T06:41:28.190Z,57.85
2022-10-19T06:43:56.248Z,62.20
2022-10-19T06:46:25.287Z,61.72
2022-10-19T06:48:56.565Z,56.47
2022-10-19T06:51:26.037Z,59.80
2022-10-19T06:53:56.611Z,57.92
2022-10-19T06:56:25.738Z,60.03
2022-10-19T06:58:54.068Z,54.92
2022-10-19T07:01:22.509Z,56.17
2022-10-19T07:03:52.089Z,60.33
2022-10-19T07:06:20.416Z,53.92
2022-10-19T07:08:48.469Z,55.50
2022-10-19T07:11:18.313Z,62.35
2022-10-19T07:13:45.720Z,56.67
2022-10-19T07:16:19.658Z,55.95
2022-10-19T07:18:51.199Z,47.80
2022-10-19T07:21:21.123Z,53.63
2022-10-19T07:23:48.990Z,48.88
2022-10-19T07:26:21.062Z,51.80
2022-10-19T07:28:49.831Z,48.95
2022-10-19T07:31:20.551Z,60.88
2022-10-19T07:33:53.108Z,51.20
2022-10-19T07:36:21.779Z,45.55
2022-10-19T07:38:49.403Z,49.60
2022-10-19T07:41:19.131Z,56.08
2022-10-19T07:43:47.827Z,60.47
2022-10-19T07:46:21.431Z,62.05
2022-10-19T07:48:49.069Z,59.30
2022-10-19T07:51:18.175Z,61.50
2022-10-19T07:53:46.573Z,59.92
2022-10-19T07:56:20.040Z,61.78
2022-10-19T07:58:48.022Z,59.72
2022-10-19T08:01:18.138Z,61.30
2022-10-19T08:06:34.358Z,65.90
2022-10-19T08:09:01.775Z,63.97
2022-10-19T08:11:34.111Z,60.70
2022-10-19T08:14:03.222Z,68.47
2022-10-19T08:16:44.276Z,67.07
2022-10-19T08:19:13.759Z,69.50
2022-10-19T08:21:43.684Z,66.43
2022-10-19T08:24:13.857Z,69.13
2022-10-19T08:26:41.880Z,68.28
2022-10-19T08:29:31.546Z,68.55
2022-10-19T08:31:59.446Z,71.60
2022-10-19T08:34:26.988Z,69.32
2022-10-19T08:36:54.379Z,68.85
2022-10-19T08:39:21.806Z,71.32
2022-10-19T08:42:18.255Z,65.85
2022-10-19T08:45:19.433Z,71.47
2022-10-19T08:48:18.612Z,67.22
2022-10-19T08:50:47.716Z,71.35
2022-10-19T08:53:24.669Z,67.75
2022-10-19T08:56:04.706Z,72.07
2022-10-19T08:58:57.149Z,65.35
2022-10-19T09:01:24.483Z,62.50
2022-10-19T09:04:03.986Z,61.35
2022-10-19T09:06:52.969Z,63.63
2022-10-19T09:09:21.142Z,65.25
2022-10-19T09:11:52.845Z,73.22
2022-10-19T09:14:46.783Z,67.63
2022-10-19T09:17:17.002Z,72.97
2022-10-19T09:19:44.429Z,68.88
2022-10-19T09:22:32.487Z,72.45
2022-10-19T09:25:15.709Z,68.53
2022-10-19T09:27:45.834Z,63.80
2022-10-19T09:30:23.418Z,70.78
2022-10-19T09:33:00.338Z,68.78
2022-10-19T09:35:34.178Z,76.28
2022-10-19T09:38:02.286Z,75.13
2022-10-19T09:40:30.958Z,75.22
2022-10-19T09:42:59.625Z,79.32
2022-10-19T09:45:46.106Z,74.30
2022-10-19T09:48:50.967Z,65.80
2022-10-19T09:51:19.571Z,79.18
2022-10-19T09:53:54.940Z,73.90
2022-10-19T09:56:23.586Z,67.70
2022-10-19T09:58:54.054Z,75.57
2022-10-19T10:01:41.733Z,71.60
2022-10-19T10:04:15.265Z,71.05
2022-10-19T10:06:44.573Z,79.95
2022-10-19T10:09:28.586Z,69.65
2022-10-19T10:11:59.983Z,76.07
2022-10-19T10:14:29.344Z,75.90
2022-10-19T10:17:19.143Z,79.80
2022-10-19T10:20:27.908Z,73.63
2022-10-19T10:23:04.294Z,78.68
2022-10-19T10:25:36.610Z,84.65
2022-10-19T10:28:28.533Z,86.75
2022-10-19T10:31:07.862Z,82.70
2022-10-19T10:33:44.991Z,81.00
2022-10-19T10:36:13.724Z,78.68
2022-10-19T10:38:46.117Z,79.68
2022-10-19T10:41:20.173Z,87.13
2022-10-19T10:44:04.850Z,81.18
2022-10-19T10:46:52.026Z,86.18
2022-10-19T10:49:39.679Z,77.68
2022-10-19T10:52:11.689Z,77.85
2022-10-19T10:54:39.369Z,88.30
2022-10-19T10:57:14.124Z,83.47
2022-10-19T10:59:48.131Z,84.10
2022-10-19T11:02:31.521Z,85.13
2022-10-19T11:05:13.036Z,93.57
2022-10-19T11:07:47.547Z,91.87
2022-10-19T11:10:24.018Z,94.47
2022-10-19T11:13:12.950Z,100.32
2022-10-19T11:15:52.849Z,97.22
2022-10-19T11:18:32.310Z,95.68
2022-10-19T11:21:24.306Z,105.57
2022-10-19T11:24:03.730Z,98.55
2022-10-19T11:26:41.957Z,94.53
2022-10-19T11:29:14.840Z,96.82
2022-10-19T11:31:54.012Z,98.68
2022-10-19T11:34:23.694Z,94.38
2022-10-19T11:37:02.177Z,91.10
2022-10-19T11:39:35.607Z,83.70
2022-10-19T11:42:06.687Z,78.70
2022-10-19T11:44:45.734Z,85.85
2022-10-19T11:47:30.657Z,91.72
2022-10-19T11:50:27.080Z,96.07
2022-10-19T11:53:18.475Z,86.50
2022-10-19T11:56:03.388Z,87.50
2022-10-19T11:58:54.969Z,90.47
2022-10-19T12:01:41.582Z,91.63
2022-10-19T12:04:30.196Z,91.55
2022-10-19T12:07:15.056Z,88.95
2022-10-19T12:10:12.932Z,82.82
2022-10-19T12:12:58.856Z,86.57
2022-10-19T12:15:48.613Z,87.25
2022-10-19T12:18:40.392Z,84.32
2022-10-19T12:21:13.901Z,83.50
2022-10-19T12:23:45.333Z,92.47
2022-10-19T12:28:55.703Z,79.35
2022-10-19T12:31:25.054Z,88.45
2022-10-19T12:34:35.830Z,78.28
2022-10-19T12:37:25.774Z,75.65
2022-10-19T12:40:11.798Z,76.50
2022-10-19T12:42:53.962Z,71.15
2022-10-19T12:45:32.334Z,68.68
2022-10-19T12:48:08.550Z,72.65
2022-10-19T12:51:01.329Z,64.07
2022-10-19T12:53:44.331Z,53.25
2022-10-19T12:56:26.184Z,61.13
2022-10-19T12:59:01.228Z,73.13
2022-10-19T13:01:44.017Z,58.20
2022-10-19T13:04:13.553Z,60.83
2022-10-19T13:07:05.517Z,68.25
2022-10-19T13:09:42.504Z,70.28
2022-10-19T13:12:19.801Z,61.33
2022-10-19T13:14:52.838Z,61.53
2022-10-19T13:17:38.192Z,52.70
2022-10-19T13:20:14.846Z,50.78
2022-10-19T13:22:42.235Z,53.65
2022-10-19T13:25:21.894Z,50.78
2022-10-19T13:28:07.883Z,47.85
2022-10-19T13:30:38.501Z,62.50
2022-10-19T13:33:33.081Z,56.33
2022-10-19T13:36:04.082Z,55.92
2022-10-19T13:38:40.452Z,54.45
2022-10-19T13:41:19.394Z,51.90
2022-10-19T13:44:06.781Z,54.40
2022-10-19T13:46:52.196Z,53.38
2022-10-19T13:49:34.334Z,55.05
2022-10-19T13:52:26.291Z,53.80
2022-10-19T13:55:02.563Z,52.33
2022-10-19T13:58:14.077Z,52.75
2022-10-19T14:01:06.100Z,60.50
2022-10-19T14:04:14.766Z,57.28
2022-10-19T14:07:21.830Z,61.17
2022-10-19T14:09:49.162Z,64.28
2022-10-19T14:12:16.506Z,56.05
2022-10-19T14:14:45.131Z,55.97
2022-10-19T14:19:54.293Z,59.03
2022-10-19T14:22:36.257Z,63.97
2022-10-19T14:25:14.979Z,54.85
2022-10-19T14:27:42.827Z,65.90
2022-10-19T14:30:28.341Z,63.28
2022-10-19T14:32:59.464Z,62.38
2022-10-19T14:35:41.272Z,66.22
2022-10-19T14:38:15.649Z,60.88
2022-10-19T14:40:43.133Z,60.53
2022-10-19T14:43:26.979Z,60.47
2022-10-19T14:46:29.278Z,66.93
2022-10-19T14:49:01.378Z,57.08
2022-10-19T14:51:52.074Z,62.05
2022-10-19T14:54:31.342Z,56.03
2022-10-19T14:57:01.706Z,58.35
2022-10-19T15:02:31.367Z,60.90
2022-10-19T15:05:01.786Z,57.00
2022-10-19T15:07:37.344Z,61.30
2022-10-19T15:10:09.262Z,55.30
2022-10-19T15:12:40.091Z,58.05
2022-10-19T15:15:19.517Z,58.45
2022-10-19T15:17:57.515Z,65.50
2022-10-19T15:20:28.841Z,63.20
2022-10-19T15:23:00.982Z,64.93
2022-10-19T15:25:39.288Z,58.38
2022-10-19T15:28:20.741Z,60.70
2022-10-19T15:31:04.022Z,65.60
2022-10-19T15:33:43.430Z,58.22
2022-10-19T15:36:17.171Z,63.92
2022-10-19T15:38:47.498Z,59.35
2022-10-19T15:41:28.215Z,64.70
2022-10-19T15:44:08.364Z,71.03
2022-10-19T15:47:19.146Z,67.75
2022-10-19T15:49:46.957Z,62.72
2022-10-19T15:52:19.891Z,59.17
2022-10-19T15:54:50.983Z,67.18
2022-10-19T15:57:26.439Z,76.40
2022-10-19T15:59:55.820Z,65.03
2022-10-19T16:02:26.917Z,70.53
2022-10-19T16:04:54.984Z,67.15
2022-10-19T16:07:31.376Z,64.25
2022-10-19T16:09:59.233Z,85.57
2022-10-19T16:12:26.960Z,74.45
2022-10-19T16:14:54.959Z,74.03
2022-10-19T16:17:22.869Z,73.18
2022-10-19T16:19:50.284Z,66.78
2022-10-19T16:22:17.806Z,68.20
2022-10-19T16:24:45.232Z,71.90
2022-10-19T16:27:15.246Z,95.35
2022-10-19T16:29:44.590Z,70.90
2022-10-19T16:32:12.059Z,79.05
2022-10-19T16:34:39.666Z,68.50
2022-10-19T16:37:07.605Z,80.88
2022-10-19T16:39:35.941Z,71.82
2022-10-19T16:42:03.605Z,76.00
2022-10-19T16:44:30.977Z,77.40
2022-10-19T16:46:58.719Z,81.07
2022-10-19T16:49:26.646Z,73.35
2022-10-19T16:51:57.279Z,65.93
2022-10-19T16:54:26.879Z,76.47
2022-10-19T16:56:55.707Z,70.93
2022-10-19T16:59:23.234Z,72.40
2022-10-19T17:01:51.007Z,69.72
2022-10-19T17:04:18.485Z,76.88
2022-10-19T17:06:46.959Z,79.68
2022-10-19T17:12:01.842Z,85.20
2022-10-19T17:14:29.242Z,76.10
2022-10-19T17:16:56.617Z,76.93
2022-10-19T17:19:24.100Z,72.65
2022-10-19T17:21:54.275Z,85.05
2022-10-19T17:24:22.765Z,82.63
2022-10-19T17:26:51.546Z,83.07
2022-10-19T17:29:20.365Z,77.47
2022-10-19T17:31:48.427Z,76.53
2022-10-19T17:34:16.194Z,74.55
2022-10-19T17:36:45.644Z,77.00
2022-10-19T17:39:19.248Z,71.32
2022-10-19T17:41:50.505Z,78.20
2022-10-19T17:44:20.283Z,90.55
2022-10-19T17:46:48.148Z,76.18
2022-10-19T17:49:16.378Z,74.38
2022-10-19T17:51:43.902Z,70.10
2022-10-19T17:54:13.554Z,70.90
2022-10-19T17:56:41.806Z,74.82
2022-10-19T17:59:09.367Z,69.72
2022-10-19T18:01:37.433Z,68.63
2022-10-19T18:04:05.372Z,60.70
2022-10-19T18:06:35.352Z,60.38
2022-10-19T18:09:05.635Z,55.70
2022-10-19T18:11:40.688Z,64.18
2022-10-19T18:14:09.559Z,64.75
2022-10-19T18:16:44.698Z,55.80
2022-10-19T18:19:13.838Z,58.65
2022-10-19T18:21:43.340Z,60.20
2022-10-19T18:24:20.372Z,51.58
2022-10-19T18:26:49.116Z,55.78
2022-10-19T18:29:21.425Z,51.85
2022-10-19T18:34:21.927Z,52.28
2022-10-19T18:36:50.078Z,53.05
2022-10-19T18:39:18.374Z,49.42
2022-10-19T18:41:45.943Z,45.15
2022-10-19T18:44:14.381Z,43.83
2022-10-19T18:46:41.927Z,41.30
2022-10-19T18:49:11.195Z,45.33
2022-10-19T18:51:38.846Z,43.63
2022-10-19T18:54:06.273Z,49.50
2022-10-19T18:56:36.415Z,45.58
2022-10-19T18:59:04.906Z,43.40
2022-10-19T19:01:32.455Z,41.10
2022-10-19T19:04:09.049Z,39.72
2022-10-19T19:06:37.676Z,47.35
2022-10-19T19:09:09.748Z,44.25
2022-10-19T19:11:39.253Z,43.13
2022-10-19T19:14:16.144Z,36.70
2022-10-19T19:16:45.048Z,37.83
2022-10-19T19:19:14.777Z,38.55
2022-10-19T19:21:44.377Z,38.15
2022-10-19T19:24:15.069Z,41.45
2022-10-19T19:26:46.700Z,35.65
2022-10-19T19:29:14.557Z,40.05
2022-10-19T19:31:42.270Z,38.10
2022-10-19T19:34:09.829Z,43.70
2022-10-19T19:39:18.684Z,38.65
2022-10-19T19:41:47.386Z,41.70
2022-10-19T19:44:15.888Z,46.20
2022-10-19T19:46:43.532Z,54.65
2022-10-19T19:49:11.181Z,71.32
2022-10-19T19:51:38.719Z,78.70
2022-10-19T19:54:06.318Z,70.18
2022-10-19T19:56:33.806Z,65.70
2022-10-19T19:59:03.664Z,68.53
2022-10-19T20:01:31.872Z,63.08
2022-10-19T20:04:00.144Z,73.78
2022-10-19T20:06:27.712Z,69.75
2022-10-19T20:08:56.492Z,73.40
2022-10-19T20:11:26.103Z,71.03
2022-10-19T20:13:53.590Z,57.13
2022-10-19T20:16:29.180Z,70.70
2022-10-19T20:19:12.764Z,63.75
2022-10-19T20:21:41.383Z,65.63
2022-10-19T20:24:09.786Z,62.03
2022-10-19T20:26:37.281Z,64.43
2022-10-19T20:29:05.167Z,62.50
2022-10-19T20:31:38.595Z,69.05
2022-10-19T20:34:10.890Z,72.18
2022-10-19T20:36:38.536Z,60.67
2022-10-19T20:39:05.994Z,59.58
2022-10-19T20:41:33.409Z,64.00
2022-10-19T20:44:00.842Z,57.10
2022-10-19T20:46:30.161Z,66.25
2022-10-19T20:49:02.614Z,58.00
2022-10-19T20:51:36.565Z,53.67
2022-10-19T20:54:06.698Z,53.00
2022-10-19T20:56:36.965Z,60.53
2022-10-19T20:59:27.755Z,44.65
2022-10-19T21:01:57.202Z,40.90
2022-10-19T21:04:25.609Z,44.88
2022-10-19T21:06:53.285Z,34.22
2022-10-19T21:09:23.081Z,31.52
2022-10-19T21:11:51.344Z,33.40
2022-10-19T21:14:28.056Z,35.17
2022-10-19T21:17:00.474Z,25.60
2022-10-19T21:19:29.794Z,28.02
2022-10-19T21:22:04.658Z,25.15
2022-10-19T21:24:35.317Z,29.50
2022-10-19T21:27:05.148Z,22.60
2022-10-19T21:29:32.930Z,20.13
2022-10-19T21:32:00.334Z,27.55
2022-10-19T21:34:30.040Z,27.50
2022-10-19T21:36:57.900Z,26.35
2022-10-19T21:39:25.336Z,26.00
2022-10-19T21:41:53.069Z,27.25
2022-10-19T21:44:22.965Z,23.08
2022-10-19T21:46:50.765Z,19.77
2022-10-19T21:49:18.507Z,20.25
2022-10-19T21:51:45.850Z,21.45
2022-10-19T21:54:19.330Z,18.83
2022-10-19T21:56:47.418Z,21.15
2022-10-19T21:59:15.463Z,20.38
2022-10-19T22:01:44.278Z,16.83
2022-10-19T22:04:14.783Z,13.75
2022-10-19T22:06:42.953Z,18.65
2022-10-19T22:09:13.246Z,16.55
2022-10-19T22:11:41.263Z,11.82
2022-10-19T22:14:10.253Z,16.17
2022-10-19T22:16:37.671Z,15.18
2022-10-19T22:19:06.080Z,17.60
2022-10-19T22:21:35.287Z,17.50
2022-10-19T22:24:05.849Z,12.00
2022-10-19T22:26:39.273Z,15.10
2022-10-19T22:29:07.868Z,13.48
2022-10-19T22:31:36.500Z,16.35
2022-10-19T22:34:07.877Z,15.13
2022-10-19T22:36:37.162Z,16.08
2022-10-19T22:39:06.755Z,16.42
2022-10-19T22:42:31.562Z,12.73
2022-10-19T22:45:19.043Z,13.90
2022-10-19T22:47:46.369Z,15.82
2022-10-19T22:50:13.820Z,17.45
2022-10-19T22:52:41.151Z,15.07
2022-10-19T22:55:08.685Z,15.00
2022-10-19T22:57:36.010Z,20.00
2022-10-19T23:00:04.033Z,15.05
2022-10-19T23:02:31.393Z,14.55
2022-10-19T23:04:58.709Z,18.55
2022-10-19T23:07:26.041Z,15.88
2022-10-19T23:09:53.367Z,15.68
2022-10-19T23:12:20.890Z,14.77
2022-10-19T23:14:48.224Z,13.85
2022-10-19T23:17:15.605Z,12.77
2022-10-19T23:19:42.951Z,17.25
2022-10-19T23:22:10.329Z,17.75
2022-10-19T23:24:37.694Z,19.35
2022-10-19T23:27:05.035Z,14.02
2022-10-19T23:29:32.418Z,14.50
2022-10-19T23:31:59.875Z,17.30
2022-10-19T23:34:27.360Z,20.20
2022-10-19T23:36:54.751Z,14.15
2022-10-19T23:39:22.135Z,16.88
2022-10-19T23:41:49.551Z,16.50
2022-10-19T23:44:16.926Z,19.17
2022-10-19T23:46:44.371Z,18.45
2022-10-19T23:49:11.829Z,19.77
2022-10-19T23:51:40.004Z,16.40
2022-10-19T23:54:07.387Z,14.68
2022-10-19T23:56:34.772Z,16.60
2022-10-19T23:59:02.142Z,15.10
